sensor_id;sensor_type;location;lat;lon;timestamp;P1;durP1;ratioP1;P2;durP2;ratioP2
74914;SDS011;63475;45.140;-75.616;2023-07-09T00:00:39;2.92;;;0.95;;
74914;SDS011;63475;45.140;-75.616;2023-07-09T00:02:42;3.95;;;1.00;;
74914;SDS011;63475;45.140;-75.616;2023-07-09T00:04:45;4.32;;;1.17;;
74914;SDS011;63475;45.140;-75.616;2023-07-09T00:06:48;2.33;;;0.77;;
74914;SDS011;63475;45.140;-75.616;2023-07-09T00:08:50;3.60;;;0.90;;
74914;SDS011;63475;45.140;-75.616;2023-07-09T00:10:54;3.00;;;0.93;;
74914;SDS011;63475;45.140;-75.616;2023-07-09T00:12:58;4.13;;;1.27;;
74914;SDS011;63475;45.140;-75.616;2023-07-09T00:15:00;4.07;;;1.08;;
74914;SDS011;63475;45.140;-75.616;2023-07-09T00:17:04;3.95;;;1.10;;
74914;SDS011;63475;45.140;-75.616;2023-07-09T00:19:16;4.47;;;1.33;;
74914;SDS011;63475;45.140;-75.616;2023-07-09T00:21:21;3.38;;;1.13;;
74914;SDS011;63475;45.140;-75.616;2023-07-09T00:23:25;3.10;;;0.80;;
74914;SDS011;63475;45.140;-75.616;2023-07-09T00:25:29;3.80;;;1.40;;
74914;SDS011;63475;45.140;-75.616;2023-07-09T00:27:32;4.40;;;0.93;;
74914;SDS011;63475;45.140;-75.616;2023-07-09T00:29:34;3.28;;;1.00;;
74914;SDS011;63475;45.140;-75.616;2023-07-09T00:31:37;3.33;;;0.98;;
74914;SDS011;63475;45.140;-75.616;2023-07-09T00:33:43;4.28;;;1.15;;
74914;SDS011;63475;45.140;-75.616;2023-07-09T00:35:48;3.97;;;1.30;;
74914;SDS011;63475;45.140;-75.616;2023-07-09T00:37:52;3.15;;;1.05;;
74914;SDS011;63475;45.140;-75.616;2023-07-09T00:39:54;3.67;;;0.90;;
74914;SDS011;63475;45.140;-75.616;2023-07-09T00:41:58;3.63;;;0.95;;
74914;SDS011;63475;45.140;-75.616;2023-07-09T00:44:13;3.95;;;1.13;;
74914;SDS011;63475;45.140;-75.616;2023-07-09T00:48:30;3.83;;;1.10;;
74914;SDS011;63475;45.140;-75.616;2023-07-09T00:52:51;3.83;;;1.35;;
74914;SDS011;63475;45.140;-75.616;2023-07-09T00:54:56;3.45;;;0.98;;
74914;SDS011;63475;45.140;-75.616;2023-07-09T00:57:05;3.22;;;0.90;;
74914;SDS011;63475;45.140;-75.616;2023-07-09T00:59:20;3.35;;;0.80;;
74914;SDS011;63475;45.140;-75.616;2023-07-09T01:01:27;2.42;;;0.80;;
74914;SDS011;63475;45.140;-75.616;2023-07-09T01:03:37;2.88;;;0.88;;
74914;SDS011;63475;45.140;-75.616;2023-07-09T01:05:44;4.05;;;1.23;;
74914;SDS011;63475;45.140;-75.616;2023-07-09T01:07:53;2.63;;;0.88;;
74914;SDS011;63475;45.140;-75.616;2023-07-09T01:09:56;4.55;;;1.00;;
74914;SDS011;63475;45.140;-75.616;2023-07-09T01:11:58;3.15;;;0.80;;
74914;SDS011;63475;45.140;-75.616;2023-07-09T01:14:03;3.33;;;0.98;;
74914;SDS011;63475;45.140;-75.616;2023-07-09T01:16:08;3.83;;;1.73;;
74914;SDS011;63475;45.140;-75.616;2023-07-09T01:18:10;4.75;;;1.35;;
74914;SDS011;63475;45.140;-75.616;2023-07-09T01:20:17;4.72;;;0.95;;
74914;SDS011;63475;45.140;-75.616;2023-07-09T01:22:24;2.80;;;0.75;;
74914;SDS011;63475;45.140;-75.616;2023-07-09T01:26:53;3.30;;;0.90;;
74914;SDS011;63475;45.140;-75.616;2023-07-09T01:28:56;3.28;;;1.05;;
74914;SDS011;63475;45.140;-75.616;2023-07-09T01:30:58;4.38;;;1.02;;
74914;SDS011;63475;45.140;-75.616;2023-07-09T01:33:02;3.63;;;1.00;;
74914;SDS011;63475;45.140;-75.616;2023-07-09T01:35:05;5.05;;;1.20;;
74914;SDS011;63475;45.140;-75.616;2023-07-09T01:37:08;4.50;;;1.52;;
74914;SDS011;63475;45.140;-75.616;2023-07-09T01:39:11;4.30;;;1.15;;
74914;SDS011;63475;45.140;-75.616;2023-07-09T01:41:13;4.38;;;1.15;;
74914;SDS011;63475;45.140;-75.616;2023-07-09T01:43:16;3.90;;;1.40;;
74914;SDS011;63475;45.140;-75.616;2023-07-09T01:45:18;3.72;;;1.02;;
74914;SDS011;63475;45.140;-75.616;2023-07-09T01:47:22;3.95;;;1.40;;
74914;SDS011;63475;45.140;-75.616;2023-07-09T01:49:25;3.20;;;0.90;;
74914;SDS011;63475;45.140;-75.616;2023-07-09T01:51:31;3.95;;;1.48;;
74914;SDS011;63475;45.140;-75.616;2023-07-09T01:53:34;3.88;;;1.05;;
74914;SDS011;63475;45.140;-75.616;2023-07-09T01:55:37;4.05;;;1.13;;
74914;SDS011;63475;45.140;-75.616;2023-07-09T01:57:44;3.45;;;1.23;;
74914;SDS011;63475;45.140;-75.616;2023-07-09T01:59:47;4.72;;;1.20;;
74914;SDS011;63475;45.140;-75.616;2023-07-09T02:01:50;5.72;;;1.52;;
74914;SDS011;63475;45.140;-75.616;2023-07-09T02:03:59;5.63;;;1.55;;
74914;SDS011;63475;45.140;-75.616;2023-07-09T02:06:02;3.97;;;1.25;;
74914;SDS011;63475;45.140;-75.616;2023-07-09T02:08:11;5.38;;;1.50;;
74914;SDS011;63475;45.140;-75.616;2023-07-09T02:10:17;4.60;;;1.63;;
74914;SDS011;63475;45.140;-75.616;2023-07-09T02:12:19;4.60;;;1.58;;
74914;SDS011;63475;45.140;-75.616;2023-07-09T02:14:22;4.45;;;1.65;;
74914;SDS011;63475;45.140;-75.616;2023-07-09T02:16:25;4.60;;;1.40;;
74914;SDS011;63475;45.140;-75.616;2023-07-09T02:18:28;4.63;;;1.08;;
74914;SDS011;63475;45.140;-75.616;2023-07-09T02:20:31;5.40;;;1.60;;
74914;SDS011;63475;45.140;-75.616;2023-07-09T02:22:34;4.60;;;1.67;;
74914;SDS011;63475;45.140;-75.616;2023-07-09T02:24:38;3.92;;;1.38;;
74914;SDS011;63475;45.140;-75.616;2023-07-09T02:26:40;5.10;;;1.88;;
74914;SDS011;63475;45.140;-75.616;2023-07-09T02:28:43;5.50;;;2.00;;
74914;SDS011;63475;45.140;-75.616;2023-07-09T02:30:45;5.13;;;2.13;;
74914;SDS011;63475;45.140;-75.616;2023-07-09T02:32:48;4.90;;;2.17;;
74914;SDS011;63475;45.140;-75.616;2023-07-09T02:34:51;5.30;;;1.95;;
74914;SDS011;63475;45.140;-75.616;2023-07-09T02:36:55;7.30;;;2.47;;
74914;SDS011;63475;45.140;-75.616;2023-07-09T02:38:59;6.93;;;1.98;;
74914;SDS011;63475;45.140;-75.616;2023-07-09T02:41:01;4.45;;;1.70;;
74914;SDS011;63475;45.140;-75.616;2023-07-09T02:43:04;5.30;;;2.08;;
74914;SDS011;63475;45.140;-75.616;2023-07-09T02:45:08;4.68;;;1.85;;
74914;SDS011;63475;45.140;-75.616;2023-07-09T02:47:12;6.53;;;2.10;;
74914;SDS011;63475;45.140;-75.616;2023-07-09T02:49:16;6.03;;;1.88;;
74914;SDS011;63475;45.140;-75.616;2023-07-09T02:51:18;4.65;;;1.77;;
74914;SDS011;63475;45.140;-75.616;2023-07-09T02:53:21;7.85;;;1.77;;
74914;SDS011;63475;45.140;-75.616;2023-07-09T02:55:23;6.15;;;1.95;;
74914;SDS011;63475;45.140;-75.616;2023-07-09T02:57:26;5.82;;;2.75;;
74914;SDS011;63475;45.140;-75.616;2023-07-09T02:59:28;4.90;;;2.60;;
74914;SDS011;63475;45.140;-75.616;2023-07-09T03:01:31;6.05;;;2.20;;
74914;SDS011;63475;45.140;-75.616;2023-07-09T03:03:36;4.82;;;1.65;;
74914;SDS011;63475;45.140;-75.616;2023-07-09T03:05:38;5.78;;;2.13;;
74914;SDS011;63475;45.140;-75.616;2023-07-09T03:07:41;5.53;;;1.98;;
74914;SDS011;63475;45.140;-75.616;2023-07-09T03:09:44;7.05;;;2.20;;
74914;SDS011;63475;45.140;-75.616;2023-07-09T03:11:47;6.80;;;2.42;;
74914;SDS011;63475;45.140;-75.616;2023-07-09T03:13:50;6.80;;;2.10;;
74914;SDS011;63475;45.140;-75.616;2023-07-09T03:15:56;5.50;;;2.38;;
74914;SDS011;63475;45.140;-75.616;2023-07-09T03:17:59;5.93;;;2.25;;
74914;SDS011;63475;45.140;-75.616;2023-07-09T03:20:02;5.13;;;2.05;;
74914;SDS011;63475;45.140;-75.616;2023-07-09T03:22:05;5.47;;;2.17;;
74914;SDS011;63475;45.140;-75.616;2023-07-09T03:24:07;5.20;;;2.15;;
74914;SDS011;63475;45.140;-75.616;2023-07-09T03:26:10;5.88;;;2.20;;
74914;SDS011;63475;45.140;-75.616;2023-07-09T03:28:13;5.93;;;1.98;;
74914;SDS011;63475;45.140;-75.616;2023-07-09T03:30:16;5.78;;;2.05;;
74914;SDS011;63475;45.140;-75.616;2023-07-09T03:32:18;5.43;;;2.10;;
74914;SDS011;63475;45.140;-75.616;2023-07-09T03:34:21;5.25;;;2.10;;
74914;SDS011;63475;45.140;-75.616;2023-07-09T03:36:23;7.13;;;2.35;;
74914;SDS011;63475;45.140;-75.616;2023-07-09T03:38:26;5.72;;;1.95;;
74914;SDS011;63475;45.140;-75.616;2023-07-09T03:40:28;7.70;;;2.55;;
74914;SDS011;63475;45.140;-75.616;2023-07-09T03:42:31;6.45;;;1.90;;
74914;SDS011;63475;45.140;-75.616;2023-07-09T03:44:33;5.97;;;2.22;;
74914;SDS011;63475;45.140;-75.616;2023-07-09T03:46:36;6.28;;;2.53;;
74914;SDS011;63475;45.140;-75.616;2023-07-09T03:48:39;6.15;;;2.20;;
74914;SDS011;63475;45.140;-75.616;2023-07-09T03:50:42;5.85;;;2.38;;
74914;SDS011;63475;45.140;-75.616;2023-07-09T03:52:46;5.47;;;2.53;;
74914;SDS011;63475;45.140;-75.616;2023-07-09T03:54:49;6.47;;;1.90;;
74914;SDS011;63475;45.140;-75.616;2023-07-09T03:56:51;5.72;;;2.47;;
74914;SDS011;63475;45.140;-75.616;2023-07-09T03:58:54;8.18;;;2.50;;
74914;SDS011;63475;45.140;-75.616;2023-07-09T04:00:56;6.20;;;2.38;;
74914;SDS011;63475;45.140;-75.616;2023-07-09T04:02:59;6.07;;;1.90;;
74914;SDS011;63475;45.140;-75.616;2023-07-09T04:05:02;5.43;;;2.03;;
74914;SDS011;63475;45.140;-75.616;2023-07-09T04:07:07;5.32;;;2.13;;
74914;SDS011;63475;45.140;-75.616;2023-07-09T04:11:12;6.18;;;2.47;;
74914;SDS011;63475;45.140;-75.616;2023-07-09T04:13:15;5.30;;;2.13;;
74914;SDS011;63475;45.140;-75.616;2023-07-09T04:15:17;6.85;;;2.20;;
74914;SDS011;63475;45.140;-75.616;2023-07-09T04:17:20;6.97;;;2.63;;
74914;SDS011;63475;45.140;-75.616;2023-07-09T04:19:24;5.90;;;2.40;;
74914;SDS011;63475;45.140;-75.616;2023-07-09T04:21:27;5.53;;;2.17;;
74914;SDS011;63475;45.140;-75.616;2023-07-09T04:23:30;6.47;;;2.25;;
74914;SDS011;63475;45.140;-75.616;2023-07-09T04:25:32;6.05;;;2.47;;
74914;SDS011;63475;45.140;-75.616;2023-07-09T04:27:35;5.68;;;2.08;;
74914;SDS011;63475;45.140;-75.616;2023-07-09T04:29:38;5.90;;;2.28;;
74914;SDS011;63475;45.140;-75.616;2023-07-09T04:31:41;5.78;;;2.17;;
74914;SDS011;63475;45.140;-75.616;2023-07-09T04:33:44;5.32;;;2.33;;
74914;SDS011;63475;45.140;-75.616;2023-07-09T04:35:47;5.82;;;2.25;;
74914;SDS011;63475;45.140;-75.616;2023-07-09T04:37:51;5.53;;;2.00;;
74914;SDS011;63475;45.140;-75.616;2023-07-09T04:39:53;5.75;;;1.88;;
74914;SDS011;63475;45.140;-75.616;2023-07-09T04:41:56;5.85;;;2.15;;
74914;SDS011;63475;45.140;-75.616;2023-07-09T04:44:00;4.88;;;2.42;;
74914;SDS011;63475;45.140;-75.616;2023-07-09T04:46:02;5.55;;;2.13;;
74914;SDS011;63475;45.140;-75.616;2023-07-09T04:48:06;4.40;;;1.80;;
74914;SDS011;63475;45.140;-75.616;2023-07-09T04:50:09;6.57;;;2.03;;
74914;SDS011;63475;45.140;-75.616;2023-07-09T04:52:13;4.60;;;1.92;;
74914;SDS011;63475;45.140;-75.616;2023-07-09T04:54:17;6.15;;;2.22;;
74914;SDS011;63475;45.140;-75.616;2023-07-09T04:56:19;6.75;;;2.08;;
74914;SDS011;63475;45.140;-75.616;2023-07-09T04:58:22;6.68;;;1.95;;
74914;SDS011;63475;45.140;-75.616;2023-07-09T05:00:25;6.80;;;2.42;;
74914;SDS011;63475;45.140;-75.616;2023-07-09T05:02:27;5.28;;;2.30;;
74914;SDS011;63475;45.140;-75.616;2023-07-09T05:04:30;5.60;;;2.17;;
74914;SDS011;63475;45.140;-75.616;2023-07-09T05:06:33;6.50;;;2.63;;
74914;SDS011;63475;45.140;-75.616;2023-07-09T05:08:36;6.25;;;2.10;;
74914;SDS011;63475;45.140;-75.616;2023-07-09T05:10:43;6.15;;;2.08;;
74914;SDS011;63475;45.140;-75.616;2023-07-09T05:12:47;4.43;;;1.60;;
74914;SDS011;63475;45.140;-75.616;2023-07-09T05:14:51;4.97;;;2.05;;
74914;SDS011;63475;45.140;-75.616;2023-07-09T05:16:54;6.65;;;2.05;;
74914;SDS011;63475;45.140;-75.616;2023-07-09T05:18:57;4.68;;;1.85;;
74914;SDS011;63475;45.140;-75.616;2023-07-09T05:20:59;6.15;;;2.28;;
74914;SDS011;63475;45.140;-75.616;2023-07-09T05:23:02;4.75;;;1.85;;
74914;SDS011;63475;45.140;-75.616;2023-07-09T05:25:05;5.78;;;2.03;;
74914;SDS011;63475;45.140;-75.616;2023-07-09T05:27:07;6.03;;;2.15;;
74914;SDS011;63475;45.140;-75.616;2023-07-09T05:29:10;6.32;;;2.13;;
74914;SDS011;63475;45.140;-75.616;2023-07-09T05:31:13;5.32;;;1.92;;
74914;SDS011;63475;45.140;-75.616;2023-07-09T05:33:16;8.48;;;2.55;;
74914;SDS011;63475;45.140;-75.616;2023-07-09T05:35:20;6.35;;;2.50;;
74914;SDS011;63475;45.140;-75.616;2023-07-09T05:37:22;6.90;;;2.13;;
74914;SDS011;63475;45.140;-75.616;2023-07-09T05:39:25;7.25;;;2.00;;
74914;SDS011;63475;45.140;-75.616;2023-07-09T05:41:27;6.00;;;2.17;;
74914;SDS011;63475;45.140;-75.616;2023-07-09T05:43:30;5.40;;;1.83;;
74914;SDS011;63475;45.140;-75.616;2023-07-09T05:45:33;6.03;;;2.28;;
74914;SDS011;63475;45.140;-75.616;2023-07-09T05:47:36;8.45;;;3.28;;
74914;SDS011;63475;45.140;-75.616;2023-07-09T05:49:38;5.95;;;2.00;;
74914;SDS011;63475;45.140;-75.616;2023-07-09T05:51:41;7.22;;;2.50;;
74914;SDS011;63475;45.140;-75.616;2023-07-09T05:53:44;6.47;;;2.50;;
74914;SDS011;63475;45.140;-75.616;2023-07-09T05:55:46;5.30;;;1.95;;
74914;SDS011;63475;45.140;-75.616;2023-07-09T05:57:49;5.53;;;2.20;;
74914;SDS011;63475;45.140;-75.616;2023-07-09T05:59:52;6.93;;;2.50;;
74914;SDS011;63475;45.140;-75.616;2023-07-09T06:01:54;4.60;;;1.52;;
74914;SDS011;63475;45.140;-75.616;2023-07-09T06:03:57;5.18;;;1.98;;
74914;SDS011;63475;45.140;-75.616;2023-07-09T06:05:59;6.97;;;2.22;;
74914;SDS011;63475;45.140;-75.616;2023-07-09T06:08:03;5.47;;;1.90;;
74914;SDS011;63475;45.140;-75.616;2023-07-09T06:10:06;5.30;;;1.88;;
74914;SDS011;63475;45.140;-75.616;2023-07-09T06:12:10;7.20;;;2.28;;
74914;SDS011;63475;45.140;-75.616;2023-07-09T06:14:12;5.85;;;1.95;;
74914;SDS011;63475;45.140;-75.616;2023-07-09T06:16:15;8.95;;;2.28;;
74914;SDS011;63475;45.140;-75.616;2023-07-09T06:18:18;7.32;;;2.60;;
74914;SDS011;63475;45.140;-75.616;2023-07-09T06:20:21;6.90;;;1.85;;
74914;SDS011;63475;45.140;-75.616;2023-07-09T06:22:24;6.82;;;2.25;;
74914;SDS011;63475;45.140;-75.616;2023-07-09T06:24:26;5.40;;;2.15;;
74914;SDS011;63475;45.140;-75.616;2023-07-09T06:26:29;5.97;;;1.90;;
74914;SDS011;63475;45.140;-75.616;2023-07-09T06:28:32;5.93;;;1.90;;
74914;SDS011;63475;45.140;-75.616;2023-07-09T06:30:35;4.95;;;1.65;;
74914;SDS011;63475;45.140;-75.616;2023-07-09T06:32:38;7.63;;;2.00;;
74914;SDS011;63475;45.140;-75.616;2023-07-09T06:34:41;4.63;;;2.20;;
74914;SDS011;63475;45.140;-75.616;2023-07-09T06:36:43;4.57;;;1.83;;
74914;SDS011;63475;45.140;-75.616;2023-07-09T06:38:46;5.93;;;1.98;;
74914;SDS011;63475;45.140;-75.616;2023-07-09T06:40:49;5.38;;;1.80;;
74914;SDS011;63475;45.140;-75.616;2023-07-09T06:42:52;6.53;;;1.98;;
74914;SDS011;63475;45.140;-75.616;2023-07-09T06:44:54;4.40;;;2.03;;
74914;SDS011;63475;45.140;-75.616;2023-07-09T06:46:57;5.03;;;1.95;;
74914;SDS011;63475;45.140;-75.616;2023-07-09T06:48:59;4.70;;;1.92;;
74914;SDS011;63475;45.140;-75.616;2023-07-09T06:51:03;5.68;;;2.13;;
74914;SDS011;63475;45.140;-75.616;2023-07-09T06:53:05;4.85;;;1.98;;
74914;SDS011;63475;45.140;-75.616;2023-07-09T06:55:08;4.55;;;1.55;;
74914;SDS011;63475;45.140;-75.616;2023-07-09T06:57:10;5.50;;;2.13;;
74914;SDS011;63475;45.140;-75.616;2023-07-09T06:59:13;5.45;;;2.03;;
74914;SDS011;63475;45.140;-75.616;2023-07-09T07:01:15;5.50;;;2.20;;
74914;SDS011;63475;45.140;-75.616;2023-07-09T07:03:21;6.03;;;2.40;;
74914;SDS011;63475;45.140;-75.616;2023-07-09T07:05:27;6.15;;;2.10;;
74914;SDS011;63475;45.140;-75.616;2023-07-09T07:07:30;7.35;;;1.52;;
74914;SDS011;63475;45.140;-75.616;2023-07-09T07:09:32;5.68;;;1.92;;
74914;SDS011;63475;45.140;-75.616;2023-07-09T07:11:35;5.00;;;1.83;;
74914;SDS011;63475;45.140;-75.616;2023-07-09T07:13:38;5.03;;;1.88;;
74914;SDS011;63475;45.140;-75.616;2023-07-09T07:15:44;5.32;;;2.00;;
74914;SDS011;63475;45.140;-75.616;2023-07-09T07:17:53;6.22;;;2.05;;
74914;SDS011;63475;45.140;-75.616;2023-07-09T07:19:56;8.27;;;2.30;;
74914;SDS011;63475;45.140;-75.616;2023-07-09T07:21:58;5.85;;;1.95;;
74914;SDS011;63475;45.140;-75.616;2023-07-09T07:24:01;6.20;;;2.28;;
74914;SDS011;63475;45.140;-75.616;2023-07-09T07:26:03;5.57;;;2.22;;
74914;SDS011;63475;45.140;-75.616;2023-07-09T07:28:06;6.80;;;2.38;;
74914;SDS011;63475;45.140;-75.616;2023-07-09T07:30:09;5.13;;;1.92;;
74914;SDS011;63475;45.140;-75.616;2023-07-09T07:32:11;6.32;;;2.17;;
74914;SDS011;63475;45.140;-75.616;2023-07-09T07:34:14;4.82;;;1.80;;
74914;SDS011;63475;45.140;-75.616;2023-07-09T07:36:16;4.95;;;2.00;;
74914;SDS011;63475;45.140;-75.616;2023-07-09T07:38:22;4.63;;;1.75;;
74914;SDS011;63475;45.140;-75.616;2023-07-09T07:40:24;4.70;;;1.77;;
74914;SDS011;63475;45.140;-75.616;2023-07-09T07:42:27;4.90;;;1.55;;
74914;SDS011;63475;45.140;-75.616;2023-07-09T07:44:30;5.70;;;2.15;;
74914;SDS011;63475;45.140;-75.616;2023-07-09T07:46:33;5.05;;;1.92;;
74914;SDS011;63475;45.140;-75.616;2023-07-09T07:48:36;4.10;;;1.38;;
74914;SDS011;63475;45.140;-75.616;2023-07-09T07:50:39;4.63;;;2.05;;
74914;SDS011;63475;45.140;-75.616;2023-07-09T07:52:42;5.32;;;1.67;;
74914;SDS011;63475;45.140;-75.616;2023-07-09T07:54:45;5.65;;;2.08;;
74914;SDS011;63475;45.140;-75.616;2023-07-09T07:56:48;7.20;;;1.83;;
74914;SDS011;63475;45.140;-75.616;2023-07-09T07:58:50;6.78;;;1.73;;
74914;SDS011;63475;45.140;-75.616;2023-07-09T08:00:56;5.85;;;2.00;;
74914;SDS011;63475;45.140;-75.616;2023-07-09T08:02:59;5.10;;;2.20;;
74914;SDS011;63475;45.140;-75.616;2023-07-09T08:05:02;5.72;;;2.30;;
74914;SDS011;63475;45.140;-75.616;2023-07-09T08:07:04;4.95;;;1.70;;
74914;SDS011;63475;45.140;-75.616;2023-07-09T08:09:07;5.60;;;2.20;;
74914;SDS011;63475;45.140;-75.616;2023-07-09T08:11:10;5.70;;;1.80;;
74914;SDS011;63475;45.140;-75.616;2023-07-09T08:13:12;6.40;;;1.73;;
74914;SDS011;63475;45.140;-75.616;2023-07-09T08:15:15;5.25;;;1.83;;
74914;SDS011;63475;45.140;-75.616;2023-07-09T08:17:19;6.63;;;2.03;;
74914;SDS011;63475;45.140;-75.616;2023-07-09T08:19:21;4.88;;;1.65;;
74914;SDS011;63475;45.140;-75.616;2023-07-09T08:21:24;5.47;;;2.13;;
74914;SDS011;63475;45.140;-75.616;2023-07-09T08:23:27;5.93;;;2.00;;
74914;SDS011;63475;45.140;-75.616;2023-07-09T08:25:29;5.22;;;2.17;;
74914;SDS011;63475;45.140;-75.616;2023-07-09T08:27:32;4.95;;;1.95;;
74914;SDS011;63475;45.140;-75.616;2023-07-09T08:29:34;6.72;;;1.67;;
74914;SDS011;63475;45.140;-75.616;2023-07-09T08:31:37;5.68;;;2.17;;
74914;SDS011;63475;45.140;-75.616;2023-07-09T08:33:41;4.95;;;1.42;;
74914;SDS011;63475;45.140;-75.616;2023-07-09T08:35:44;7.35;;;1.90;;
74914;SDS011;63475;45.140;-75.616;2023-07-09T08:37:47;7.38;;;1.92;;
74914;SDS011;63475;45.140;-75.616;2023-07-09T08:39:49;5.93;;;1.58;;
74914;SDS011;63475;45.140;-75.616;2023-07-09T08:46:33;6.32;;;2.42;;
74914;SDS011;63475;45.140;-75.616;2023-07-09T08:48:41;5.40;;;1.73;;
74914;SDS011;63475;45.140;-75.616;2023-07-09T08:50:52;5.80;;;1.88;;
74914;SDS011;63475;45.140;-75.616;2023-07-09T08:52:57;5.38;;;1.80;;
74914;SDS011;63475;45.140;-75.616;2023-07-09T08:55:04;7.88;;;1.92;;
74914;SDS011;63475;45.140;-75.616;2023-07-09T08:57:20;7.07;;;2.35;;
74914;SDS011;63475;45.140;-75.616;2023-07-09T08:59:27;7.30;;;2.00;;
74914;SDS011;63475;45.140;-75.616;2023-07-09T09:01:40;4.60;;;1.85;;
74914;SDS011;63475;45.140;-75.616;2023-07-09T09:03:59;5.70;;;2.00;;
74914;SDS011;63475;45.140;-75.616;2023-07-09T09:06:11;6.22;;;1.70;;
74914;SDS011;63475;45.140;-75.616;2023-07-09T09:08:21;6.13;;;1.90;;
74914;SDS011;63475;45.140;-75.616;2023-07-09T09:11:16;5.63;;;1.92;;
74914;SDS011;63475;45.140;-75.616;2023-07-09T09:13:13;4.30;;;1.88;;
74914;SDS011;63475;45.140;-75.616;2023-07-09T09:15:18;5.22;;;1.70;;
74914;SDS011;63475;45.140;-75.616;2023-07-09T09:17:23;5.22;;;1.90;;
74914;SDS011;63475;45.140;-75.616;2023-07-09T09:19:37;6.55;;;1.83;;
74914;SDS011;63475;45.140;-75.616;2023-07-09T09:21:47;7.78;;;1.67;;
74914;SDS011;63475;45.140;-75.616;2023-07-09T09:23:58;5.28;;;1.73;;
74914;SDS011;63475;45.140;-75.616;2023-07-09T09:26:16;3.97;;;1.15;;
74914;SDS011;63475;45.140;-75.616;2023-07-09T09:28:40;6.22;;;2.08;;
74914;SDS011;63475;45.140;-75.616;2023-07-09T09:30:42;6.22;;;2.22;;
74914;SDS011;63475;45.140;-75.616;2023-07-09T09:32:47;5.72;;;2.00;;
74914;SDS011;63475;45.140;-75.616;2023-07-09T09:34:55;4.65;;;1.58;;
74914;SDS011;63475;45.140;-75.616;2023-07-09T09:36:58;5.95;;;2.20;;
74914;SDS011;63475;45.140;-75.616;2023-07-09T09:39:01;5.47;;;1.73;;
74914;SDS011;63475;45.140;-75.616;2023-07-09T09:41:04;4.57;;;1.40;;
74914;SDS011;63475;45.140;-75.616;2023-07-09T09:43:20;5.93;;;1.80;;
74914;SDS011;63475;45.140;-75.616;2023-07-09T09:45:35;6.50;;;1.83;;
74914;SDS011;63475;45.140;-75.616;2023-07-09T09:47:41;5.18;;;1.85;;
74914;SDS011;63475;45.140;-75.616;2023-07-09T09:49:45;5.65;;;2.00;;
74914;SDS011;63475;45.140;-75.616;2023-07-09T09:51:48;5.03;;;2.13;;
74914;SDS011;63475;45.140;-75.616;2023-07-09T09:53:51;6.25;;;2.13;;
74914;SDS011;63475;45.140;-75.616;2023-07-09T09:56:03;4.40;;;1.60;;
74914;SDS011;63475;45.140;-75.616;2023-07-09T09:58:11;5.97;;;1.98;;
74914;SDS011;63475;45.140;-75.616;2023-07-09T10:00:17;5.35;;;1.83;;
74914;SDS011;63475;45.140;-75.616;2023-07-09T10:02:22;5.72;;;1.42;;
74914;SDS011;63475;45.140;-75.616;2023-07-09T10:04:26;4.68;;;1.70;;
74914;SDS011;63475;45.140;-75.616;2023-07-09T10:06:34;4.93;;;1.83;;
74914;SDS011;63475;45.140;-75.616;2023-07-09T10:08:48;5.68;;;2.15;;
74914;SDS011;63475;45.140;-75.616;2023-07-09T10:11:13;5.40;;;1.80;;
74914;SDS011;63475;45.140;-75.616;2023-07-09T10:13:34;5.30;;;2.13;;
74914;SDS011;63475;45.140;-75.616;2023-07-09T10:20:35;5.32;;;1.85;;
74914;SDS011;63475;45.140;-75.616;2023-07-09T10:28:17;4.90;;;1.63;;
74914;SDS011;63475;45.140;-75.616;2023-07-09T10:30:25;5.18;;;1.85;;
74914;SDS011;63475;45.140;-75.616;2023-07-09T10:35:16;5.85;;;1.73;;
74914;SDS011;63475;45.140;-75.616;2023-07-09T10:37:34;6.57;;;1.88;;
74914;SDS011;63475;45.140;-75.616;2023-07-09T10:39:56;5.82;;;2.15;;
74914;SDS011;63475;45.140;-75.616;2023-07-09T10:42:00;5.88;;;1.65;;
74914;SDS011;63475;45.140;-75.616;2023-07-09T10:46:33;5.22;;;1.70;;
74914;SDS011;63475;45.140;-75.616;2023-07-09T10:48:41;6.07;;;1.85;;
74914;SDS011;63475;45.140;-75.616;2023-07-09T10:50:50;5.03;;;1.92;;
74914;SDS011;63475;45.140;-75.616;2023-07-09T10:52:55;6.15;;;1.83;;
74914;SDS011;63475;45.140;-75.616;2023-07-09T10:59:49;5.47;;;2.70;;
74914;SDS011;63475;45.140;-75.616;2023-07-09T11:01:57;5.95;;;2.00;;
74914;SDS011;63475;45.140;-75.616;2023-07-09T11:08:43;4.70;;;1.70;;
74914;SDS011;63475;45.140;-75.616;2023-07-09T11:11:03;6.22;;;2.50;;
74914;SDS011;63475;45.140;-75.616;2023-07-09T11:13:16;5.75;;;1.48;;
74914;SDS011;63475;45.140;-75.616;2023-07-09T11:15:23;6.22;;;1.83;;
74914;SDS011;63475;45.140;-75.616;2023-07-09T11:17:32;4.90;;;2.25;;
74914;SDS011;63475;45.140;-75.616;2023-07-09T11:19:40;5.15;;;2.03;;
74914;SDS011;63475;45.140;-75.616;2023-07-09T11:21:57;4.85;;;1.90;;
74914;SDS011;63475;45.140;-75.616;2023-07-09T11:24:05;5.28;;;1.75;;
74914;SDS011;63475;45.140;-75.616;2023-07-09T11:26:29;5.70;;;1.85;;
74914;SDS011;63475;45.140;-75.616;2023-07-09T11:28:34;5.45;;;1.63;;
74914;SDS011;63475;45.140;-75.616;2023-07-09T11:30:53;4.20;;;1.63;;
74914;SDS011;63475;45.140;-75.616;2023-07-09T11:33:15;4.05;;;1.75;;
74914;SDS011;63475;45.140;-75.616;2023-07-09T11:35:26;6.50;;;1.73;;
74914;SDS011;63475;45.140;-75.616;2023-07-09T11:37:30;4.47;;;1.65;;
74914;SDS011;63475;45.140;-75.616;2023-07-09T11:43:47;3.90;;;1.27;;
74914;SDS011;63475;45.140;-75.616;2023-07-09T11:45:50;3.78;;;1.55;;
74914;SDS011;63475;45.140;-75.616;2023-07-09T11:50:29;5.68;;;1.85;;
74914;SDS011;63475;45.140;-75.616;2023-07-09T11:52:34;4.47;;;1.35;;
74914;SDS011;63475;45.140;-75.616;2023-07-09T11:54:38;4.82;;;1.92;;
74914;SDS011;63475;45.140;-75.616;2023-07-09T11:56:40;5.15;;;1.77;;
74914;SDS011;63475;45.140;-75.616;2023-07-09T11:58:54;5.75;;;1.63;;
74914;SDS011;63475;45.140;-75.616;2023-07-09T12:00:58;3.65;;;1.55;;
74914;SDS011;63475;45.140;-75.616;2023-07-09T12:03:06;5.00;;;1.48;;
74914;SDS011;63475;45.140;-75.616;2023-07-09T12:05:14;5.13;;;1.90;;
74914;SDS011;63475;45.140;-75.616;2023-07-09T12:07:22;4.93;;;2.03;;
74914;SDS011;63475;45.140;-75.616;2023-07-09T12:09:31;4.93;;;1.73;;
74914;SDS011;63475;45.140;-75.616;2023-07-09T12:11:44;4.38;;;1.40;;
74914;SDS011;63475;45.140;-75.616;2023-07-09T12:13:48;5.22;;;1.85;;
74914;SDS011;63475;45.140;-75.616;2023-07-09T12:15:51;4.95;;;1.52;;
74914;SDS011;63475;45.140;-75.616;2023-07-09T12:17:55;5.22;;;1.85;;
74914;SDS011;63475;45.140;-75.616;2023-07-09T12:20:04;4.95;;;1.42;;
74914;SDS011;63475;45.140;-75.616;2023-07-09T12:22:16;4.70;;;1.95;;
74914;SDS011;63475;45.140;-75.616;2023-07-09T12:24:26;5.32;;;2.53;;
74914;SDS011;63475;45.140;-75.616;2023-07-09T12:26:35;4.10;;;1.40;;
74914;SDS011;63475;45.140;-75.616;2023-07-09T12:28:38;4.38;;;1.42;;
74914;SDS011;63475;45.140;-75.616;2023-07-09T12:30:44;5.35;;;1.75;;
74914;SDS011;63475;45.140;-75.616;2023-07-09T12:32:49;5.30;;;1.63;;
74914;SDS011;63475;45.140;-75.616;2023-07-09T12:34:55;4.88;;;1.50;;
74914;SDS011;63475;45.140;-75.616;2023-07-09T12:36:58;4.05;;;1.38;;
74914;SDS011;63475;45.140;-75.616;2023-07-09T12:39:02;3.95;;;1.15;;
74914;SDS011;63475;45.140;-75.616;2023-07-09T12:41:06;4.60;;;1.70;;
74914;SDS011;63475;45.140;-75.616;2023-07-09T12:43:16;5.95;;;1.75;;
74914;SDS011;63475;45.140;-75.616;2023-07-09T12:45:23;5.88;;;2.08;;
74914;SDS011;63475;45.140;-75.616;2023-07-09T12:47:26;4.28;;;1.27;;
74914;SDS011;63475;45.140;-75.616;2023-07-09T12:49:31;4.38;;;1.42;;
74914;SDS011;63475;45.140;-75.616;2023-07-09T12:51:41;4.30;;;1.58;;
74914;SDS011;63475;45.140;-75.616;2023-07-09T12:53:43;4.40;;;1.67;;
74914;SDS011;63475;45.140;-75.616;2023-07-09T12:55:46;4.35;;;1.30;;